Nearby METAR Reports

 

KMGY - Dayton, Ohio, USA
Distance from station: N 3mi, 5km
Updated: Mon, 06-Jul-2020 12:53pm EDT
Clear
Clear
 Wind from varies
Wind: varies 6 mph , 9 km/h
Temperature: 90°F , 32°C
Heat Index: 97°F , 36°C
Dew Point: 72°F , 22°C
Humidity: 55%
Barometer: 30.04 inHg , 1017.3 hPa
Clouds: Clear
Visibility: 10 miles , 16 km
2020/07/06 16:53 KMGY 061653Z AUTO VRB05KT 10SM CLR 32/22 A3004 RMK AO2 SLP163 T03170217
KMWO - Middletown/Hook, Ohio, USA
Distance from station: W 9mi, 14km
Updated: Mon, 06-Jul-2020 1:15pm EDT
Clear
Clear
 Wind from W
Wind: W 5 mph , 7 km/h
Barometer: 30.04 inHg , 1017.3 hPa
Clouds: Clear
Visibility: 10 miles , 16 km
2020/07/06 17:15 KMWO 061715Z AUTO 27004KT 10SM CLR A3004 RMK AO2
 
KHAO - Hamilton, Ohio, USA
Distance from station: SW 20mi, 32km
Updated: Mon, 06-Jul-2020 12:53pm EDT
Clear
Clear
 Wind from calm
Wind: Calm
Temperature: 90°F , 32°C
Heat Index: 97°F , 36°C
Dew Point: 72°F , 22°C
Humidity: 55%
Barometer: 30.04 inHg , 1017.3 hPa
Clouds: Clear
Visibility: 10 miles , 16 km
2020/07/06 16:53 KHAO 061653Z AUTO 00000KT 10SM CLR 32/22 A3004 RMK AO2 SLP167 T03170222
KFFO - Wright Paterson, Ohio, USA
Distance from station: NNE 21mi, 34km
Updated: Mon, 06-Jul-2020 12:56pm EDT
Clear
Clear
 Wind from WNW
Wind: WNW 5 mph , 7 km/h
Temperature: 91°F , 33°C
Heat Index: 95°F , 35°C
Dew Point: 68°F , 20°C
Humidity: 46%
Barometer: 30.04 inHg , 1017.3 hPa
Clouds: Clear
Visibility: 10 miles , 16 km
2020/07/06 16:56 KFFO 061656Z AUTO 30004KT 10SM CLR 33/20 A3004 RMK AO2 SLP168 T03290204
 
KDAY - Dayton, Ohio, USA
Distance from station: N 24mi, 39km
Updated: Mon, 06-Jul-2020 12:56pm EDT
Few Clouds
Few Clouds
 Wind from WSW
Wind: WSW 8 mph , 13 km/h
Temperature: 90°F , 32°C
Heat Index: 97°F , 36°C
Dew Point: 72°F , 22°C
Humidity: 55%
Barometer: 30.06 inHg , 1017.9 hPa
Clouds: Few Clouds
Visibility: 10 miles , 16 km
Cloud details: Few Clouds 4500 ft
Few Clouds 9000 ft
2020/07/06 16:56 KDAY 061656Z 24007KT 10SM FEW045 FEW090 32/22 A3006 RMK AO2 SLP167 MDT CU NE-E T03220217
KILN - Wilmington, Ohio, USA
Distance from station: ESE 25mi, 39km
Updated: Mon, 06-Jul-2020 1:14pm EDT
Thunderstorm, Mostly cloudy
Thunderstorm, Mostly cloudy
 Wind from SW
Wind: SW 5 mph , 7 km/h
Temperature: 88°F , 31°C
Heat Index: 95°F , 35°C
Dew Point: 72°F , 22°C
Humidity: 59%
Barometer: 30.05 inHg , 1017.6 hPa
Summary: Thunderstorm
Clouds: Mostly cloudy
Visibility: 10 miles , 16 km
Cloud details: Mostly cloudy 4100 ft
Mostly cloudy 5000 ft
2020/07/06 17:14 KILN 061714Z AUTO 22004KT 10SM TS BKN041 BKN050 31/22 A3005 RMK AO2 LTG DSNT N TSB08 T03110217
 
KSGH - Springfield Muni, Ohio, USA
Distance from station: NE 29mi, 46km
Updated: Mon, 06-Jul-2020 1:32pm EDT
Nearby thunderstorm, Mostly cloudy
Nearby thunderstorm, Mostly cloudy
 Wind from calm
Wind: Calm
Temperature: 88°F , 31°C
Heat Index: 93°F , 34°C
Dew Point: 70°F , 21°C
Humidity: 55%
Barometer: 30.04 inHg , 1017.3 hPa
Summary: Nearby Thunderstorm
Clouds: Mostly cloudy
Visibility: 10 miles , 16 km
Cloud details: Few Clouds 4600 ft
Partly cloudy 5500 ft
Mostly cloudy 9000 ft
2020/07/06 17:32 KSGH 061732Z AUTO 00000KT 10SM VCTS FEW046 SCT055 BKN090 31/21 A3004 RMK AO2 LTG DSNT ALQDS TSB01E31B32
KI69 - Batavia, Ohio, USA
Distance from station: S 32mi, 52km
Updated: Mon, 06-Jul-2020 1:35pm EDT
Clear
Clear
 Wind from WSW
Wind: WSW 6 mph , 9 km/h
Temperature: 88°F , 31°C
Heat Index: 95°F , 35°C
Dew Point: 72°F , 22°C
Humidity: 59%
Barometer: 30.05 inHg , 1017.6 hPa
Clouds: Clear
Visibility: 10 miles , 16 km
2020/07/06 17:35 KI69 061735Z AUTO 24005KT 10SM CLR 31/22 A3005 RMK AO2 T03140216
 
KLUK - Cincinnat/Lunken, Ohio, USA
Distance from station: SSW 33mi, 53km
Updated: Mon, 06-Jul-2020 12:53pm EDT
Clear
Clear
 Wind from SW
Wind: SW 6 mph , 9 km/h
Temperature: 84°F , 29°C
Heat Index: 92°F , 33°C
Dew Point: 75°F , 24°C
Humidity: 74%
Barometer: 30.04 inHg , 1017.3 hPa
Clouds: Clear
Visibility: 10 miles , 16 km
2020/07/06 16:53 KLUK 061653Z 23005KT 10SM CLR 29/24 A3004 RMK AO2 SLP167 T02940239
KCVG - Covington, Kentucky, USA
Distance from station: SSW 42mi, 67km
Updated: Mon, 06-Jul-2020 12:52pm EDT
Mostly cloudy
Mostly cloudy
 Wind from SSE
Wind: SSE 7 mph , 11 km/h
Temperature: 84°F , 29°C
Heat Index: 89°F , 32°C
Dew Point: 72°F , 22°C
Humidity: 66%
Barometer: 30.05 inHg , 1017.6 hPa
Clouds: Mostly cloudy
Visibility: 7 miles , 11 km
Cloud details: Partly cloudy 12000 ft
Mostly cloudy 15000 ft
Mostly cloudy 20000 ft
2020/07/06 16:52 KCVG 061652Z 15006KT 7SM SCT120 BKN150 BKN200 29/22 A3005 RMK AO2 SLP163 T02890222
 
KVES - Versailles, Ohio, USA
Distance from station: NNW 47mi, 76km
Updated: Mon, 06-Jul-2020 1:10pm EDT
Clear
Clear
 Wind from calm
Wind: Calm
Temperature: 88°F , 31°C
Dew Point: 55°F , 13°C
Humidity: 33%
Barometer: 30.05 inHg , 1017.6 hPa
Clouds: Clear
Visibility: 10 miles , 16 km
2020/07/06 17:10 KVES 061710Z AUTO 00000KT 10SM CLR 31/13 A3005 RMK AO2